createdAt,value
2022-08-26T00:00:30.935Z,34.42
2022-08-26T00:02:58.349Z,27.13
2022-08-26T00:05:25.427Z,23.63
2022-08-26T00:07:52.945Z,29.38
2022-08-26T00:10:20.808Z,26.73
2022-08-26T00:12:52.377Z,26.80
2022-08-26T00:15:21.644Z,27.58
2022-08-26T00:17:50.323Z,26.48
2022-08-26T00:20:21.129Z,25.45
2022-08-26T00:22:47.827Z,28.90
2022-08-26T00:25:17.295Z,25.67
2022-08-26T00:27:44.141Z,26.90
2022-08-26T00:30:13.709Z,31.02
2022-08-26T00:32:44.026Z,31.40
2022-08-26T00:35:13.470Z,33.83
2022-08-26T00:37:41.701Z,20.52
2022-08-26T00:40:12.576Z,25.15
2022-08-26T00:42:39.245Z,28.33
2022-08-26T00:45:14.211Z,31.63
2022-08-26T00:47:51.705Z,26.23
2022-08-26T00:50:22.863Z,33.17
2022-08-26T00:52:50.816Z,23.52
2022-08-26T00:55:21.638Z,27.00
2022-08-26T00:57:50.690Z,27.92
2022-08-26T01:00:20.938Z,25.13
2022-08-26T01:02:49.940Z,22.05
2022-08-26T01:05:18.373Z,25.13
2022-08-26T01:07:46.213Z,24.92
2022-08-26T01:10:16.674Z,23.85
2022-08-26T01:12:47.831Z,26.35
2022-08-26T01:15:19.083Z,26.40
2022-08-26T01:17:46.011Z,29.63
2022-08-26T01:20:27.323Z,32.08
2022-08-26T01:22:57.787Z,25.10
2022-08-26T01:25:26.219Z,36.30
2022-08-26T01:27:55.802Z,26.20
2022-08-26T01:30:24.998Z,25.95
2022-08-26T01:32:52.112Z,19.38
2022-08-26T01:35:19.187Z,25.33
2022-08-26T01:37:50.191Z,25.05
2022-08-26T01:40:24.670Z,28.13
2022-08-26T01:42:53.545Z,29.58
2022-08-26T01:45:24.167Z,19.10
2022-08-26T01:47:56.588Z,27.80
2022-08-26T01:50:30.334Z,22.10
2022-08-26T01:52:58.891Z,26.92
2022-08-26T01:55:32.775Z,29.95
2022-08-26T01:58:03.305Z,33.00
2022-08-26T02:00:29.915Z,23.15
2022-08-26T02:02:57.752Z,26.25
2022-08-26T02:05:24.461Z,31.05
2022-08-26T02:07:51.071Z,24.77
2022-08-26T02:10:17.636Z,24.98
2022-08-26T02:12:48.652Z,24.35
2022-08-26T02:15:15.203Z,28.67
2022-08-26T02:17:46.877Z,26.02
2022-08-26T02:20:18.093Z,22.33
2022-08-26T02:22:45.376Z,27.93
2022-08-26T02:25:18.057Z,32.47
2022-08-26T02:27:47.824Z,20.20
2022-08-26T02:30:17.770Z,21.55
2022-08-26T02:32:44.733Z,23.25
2022-08-26T02:35:13.797Z,22.83
2022-08-26T02:37:47.248Z,25.38
2022-08-26T02:40:18.217Z,33.00
2022-08-26T02:42:44.976Z,23.65
2022-08-26T02:45:12.892Z,25.95
2022-08-26T02:47:39.611Z,32.50
2022-08-26T02:50:07.415Z,22.08
2022-08-26T02:52:34.676Z,24.50
2022-08-26T02:55:01.308Z,21.65
2022-08-26T02:57:28.902Z,24.85
2022-08-26T02:59:55.451Z,24.08
2022-08-26T03:02:24.042Z,27.90
2022-08-26T03:04:57.770Z,26.02
2022-08-26T03:07:28.775Z,22.65
2022-08-26T03:09:56.498Z,30.23
2022-08-26T03:12:23.155Z,30.63
2022-08-26T03:14:49.749Z,29.00
2022-08-26T03:17:16.335Z,24.73
2022-08-26T03:19:44.231Z,20.70
2022-08-26T03:22:11.206Z,19.17
2022-08-26T03:24:37.949Z,33.63
2022-08-26T03:27:05.995Z,26.38
2022-08-26T03:29:33.988Z,29.08
2022-08-26T03:32:00.555Z,27.55
2022-08-26T03:34:27.284Z,31.17
2022-08-26T03:36:55.740Z,21.70
2022-08-26T03:39:23.102Z,24.38
2022-08-26T03:41:49.678Z,22.55
2022-08-26T03:44:17.716Z,28.33
2022-08-26T03:46:44.441Z,26.48
2022-08-26T03:49:11.644Z,27.48
2022-08-26T03:51:38.705Z,33.95
2022-08-26T03:54:08.359Z,28.95
2022-08-26T03:56:35.604Z,26.95
2022-08-26T03:59:02.674Z,25.23
2022-08-26T04:01:30.230Z,25.95
2022-08-26T04:04:00.060Z,23.92
2022-08-26T04:06:28.758Z,23.85
2022-08-26T04:08:56.420Z,27.80
2022-08-26T04:11:27.635Z,30.88
2022-08-26T04:13:55.088Z,23.88
2022-08-26T04:16:21.933Z,25.25
2022-08-26T04:18:49.388Z,27.88
2022-08-26T04:21:15.960Z,24.48
2022-08-26T04:23:47.654Z,24.27
2022-08-26T04:26:14.805Z,27.48
2022-08-26T04:28:42.747Z,31.05
2022-08-26T04:31:10.879Z,26.98
2022-08-26T04:33:41.730Z,26.23
2022-08-26T04:36:09.135Z,24.77
2022-08-26T04:38:36.186Z,27.27
2022-08-26T04:41:05.426Z,26.15
2022-08-26T04:43:32.173Z,31.85
2022-08-26T04:46:02.828Z,27.33
2022-08-26T04:48:30.819Z,26.60
2022-08-26T04:50:57.409Z,31.90
2022-08-26T04:53:26.078Z,21.30
2022-08-26T04:55:55.254Z,32.55
2022-08-26T04:58:23.285Z,26.20
2022-08-26T05:00:52.620Z,28.50
2022-08-26T05:03:22.300Z,24.38
2022-08-26T05:05:49.613Z,23.77
2022-08-26T05:08:18.029Z,32.28
2022-08-26T05:10:47.453Z,26.90
2022-08-26T05:13:15.900Z,27.73
2022-08-26T05:15:44.062Z,36.42
2022-08-26T05:18:11.184Z,32.70
2022-08-26T05:20:41.600Z,32.67
2022-08-26T05:23:08.884Z,27.52
2022-08-26T05:25:38.033Z,21.90
2022-08-26T05:28:04.668Z,31.15
2022-08-26T05:30:32.243Z,32.95
2022-08-26T05:32:59.177Z,39.67
2022-08-26T05:35:28.266Z,35.53
2022-08-26T05:38:00.030Z,36.28
2022-08-26T05:40:27.629Z,30.55
2022-08-26T05:42:55.304Z,27.80
2022-08-26T05:45:21.872Z,31.50
2022-08-26T05:47:49.663Z,31.55
2022-08-26T05:50:17.757Z,34.67
2022-08-26T05:52:44.525Z,29.25
2022-08-26T05:55:12.437Z,30.58
2022-08-26T05:57:42.825Z,39.85
2022-08-26T06:00:11.019Z,34.20
2022-08-26T06:02:37.653Z,32.50
2022-08-26T06:05:04.754Z,31.60
2022-08-26T06:07:34.184Z,40.78
2022-08-26T06:10:28.295Z,30.02
2022-08-26T06:12:48.795Z,27.55
2022-08-26T06:15:15.614Z,26.42
2022-08-26T06:17:42.263Z,27.73
2022-08-26T06:20:10.287Z,35.45
2022-08-26T06:22:36.988Z,28.25
2022-08-26T06:25:03.814Z,28.83
2022-08-26T06:27:32.774Z,32.95
2022-08-26T06:30:00.835Z,35.65
2022-08-26T06:32:27.461Z,29.70
2022-08-26T06:34:53.997Z,26.83
2022-08-26T06:37:20.585Z,31.55
2022-08-26T06:39:47.594Z,27.13
2022-08-26T06:42:17.837Z,26.90
2022-08-26T06:44:44.972Z,23.30
2022-08-26T06:47:12.937Z,30.35
2022-08-26T06:49:39.840Z,25.52
2022-08-26T06:52:06.464Z,31.23
2022-08-26T06:54:33.018Z,33.13
2022-08-26T06:57:00.126Z,25.45
2022-08-26T06:59:26.764Z,28.65
2022-08-26T07:01:53.711Z,29.38
2022-08-26T07:04:23.256Z,32.45
2022-08-26T07:06:53.386Z,25.73
2022-08-26T07:09:22.586Z,24.23
2022-08-26T07:11:49.411Z,26.73
2022-08-26T07:14:16.019Z,39.55
2022-08-26T07:16:42.557Z,23.75
2022-08-26T07:19:11.086Z,29.13
2022-08-26T07:21:40.460Z,26.17
2022-08-26T07:24:07.232Z,28.90
2022-08-26T07:26:33.801Z,46.17
2022-08-26T07:29:01.655Z,29.67
2022-08-26T07:31:33.609Z,26.13
2022-08-26T07:34:05.687Z,23.67
2022-08-26T07:36:32.240Z,24.50
2022-08-26T07:39:00.118Z,30.85
2022-08-26T07:41:26.979Z,24.77
2022-08-26T07:43:54.458Z,23.60
2022-08-26T07:46:27.064Z,24.30
2022-08-26T07:48:57.380Z,25.27
2022-08-26T07:51:24.404Z,25.50
2022-08-26T07:53:52.897Z,29.50
2022-08-26T07:56:22.027Z,26.02
2022-08-26T07:58:51.415Z,27.35
2022-08-26T08:01:18.901Z,23.52
2022-08-26T08:03:45.524Z,29.48
2022-08-26T08:06:12.367Z,26.98
2022-08-26T08:08:38.921Z,25.00
2022-08-26T08:11:06.404Z,24.10
2022-08-26T08:13:34.620Z,27.38
2022-08-26T08:16:01.211Z,24.08
2022-08-26T08:18:27.743Z,21.08
2022-08-26T08:20:59.138Z,22.58
2022-08-26T08:23:25.929Z,18.60
2022-08-26T08:26:00.457Z,20.48
2022-08-26T08:28:27.052Z,19.85
2022-08-26T08:30:55.073Z,17.13
2022-08-26T08:33:21.659Z,21.80
2022-08-26T08:35:48.462Z,20.10
2022-08-26T08:38:15.433Z,22.40
2022-08-26T08:40:44.819Z,22.83
2022-08-26T08:43:13.303Z,20.02
2022-08-26T08:45:47.152Z,21.42
2022-08-26T08:48:24.325Z,18.75
2022-08-26T08:50:58.765Z,21.15
2022-08-26T08:53:31.955Z,17.63
2022-08-26T08:56:04.811Z,19.02
2022-08-26T08:58:46.419Z,21.95
2022-08-26T09:01:24.918Z,22.80
2022-08-26T09:04:03.855Z,25.42
2022-08-26T09:06:30.869Z,22.42
2022-08-26T09:08:57.708Z,18.13
2022-08-26T09:11:24.239Z,23.48
2022-08-26T09:13:55.050Z,18.17
2022-08-26T09:16:27.232Z,23.63
2022-08-26T09:19:19.027Z,16.77
2022-08-26T09:21:45.881Z,16.65
2022-08-26T09:24:13.996Z,24.15
2022-08-26T09:26:47.378Z,23.08
2022-08-26T09:31:48.646Z,19.42
2022-08-26T09:34:20.952Z,24.95
2022-08-26T09:36:49.668Z,17.98
2022-08-26T09:39:31.887Z,24.92
2022-08-26T09:42:07.006Z,14.77
2022-08-26T09:44:35.050Z,20.77
2022-08-26T09:47:04.714Z,22.48
2022-08-26T09:49:36.471Z,22.92
2022-08-26T09:52:15.570Z,22.92
2022-08-26T09:54:43.524Z,26.42
2022-08-26T09:57:17.500Z,24.48
2022-08-26T10:02:23.628Z,21.92
2022-08-26T10:04:55.926Z,23.38
2022-08-26T10:07:42.223Z,20.30
2022-08-26T10:10:13.614Z,18.02
2022-08-26T10:15:15.201Z,18.40
2022-08-26T10:17:47.361Z,27.33
2022-08-26T10:20:23.220Z,27.75
2022-08-26T10:22:58.553Z,20.73
2022-08-26T10:25:31.717Z,25.40
2022-08-26T10:28:04.117Z,24.73
2022-08-26T10:30:37.129Z,24.27
2022-08-26T10:33:07.233Z,18.77
2022-08-26T10:35:40.467Z,22.27
2022-08-26T10:38:11.131Z,21.65
2022-08-26T10:40:46.616Z,31.33
2022-08-26T10:43:19.112Z,22.38
2022-08-26T10:45:50.015Z,18.88
2022-08-26T10:50:49.580Z,25.63
2022-08-26T10:53:25.130Z,24.38
2022-08-26T10:55:59.581Z,21.08
2022-08-26T10:58:41.018Z,19.80
2022-08-26T11:01:22.710Z,17.77
2022-08-26T11:03:58.384Z,20.10
2022-08-26T11:06:29.054Z,22.30
2022-08-26T11:08:57.767Z,21.87
2022-08-26T11:11:48.128Z,23.33
2022-08-26T11:14:34.200Z,19.35
2022-08-26T11:17:12.693Z,21.90
2022-08-26T11:20:03.326Z,19.92
2022-08-26T11:22:37.430Z,18.70
2022-08-26T11:25:11.579Z,22.65
2022-08-26T11:27:53.959Z,22.45
2022-08-26T11:30:40.109Z,20.27
2022-08-26T11:33:06.860Z,29.58
2022-08-26T11:35:49.389Z,22.98
2022-08-26T11:38:22.478Z,19.98
2022-08-26T11:41:07.873Z,21.77
2022-08-26T11:43:35.864Z,20.38
2022-08-26T11:46:05.617Z,19.48
2022-08-26T11:48:36.179Z,25.38
2022-08-26T11:51:05.621Z,18.77
2022-08-26T11:53:37.753Z,28.08
2022-08-26T11:56:08.570Z,30.20
2022-08-26T12:02:04.367Z,16.20
2022-08-26T12:04:36.250Z,14.23
2022-08-26T12:07:04.664Z,21.13
2022-08-26T12:12:54.183Z,13.65
2022-08-26T12:15:20.778Z,23.25
2022-08-26T12:17:52.993Z,18.48
2022-08-26T12:20:31.293Z,12.98
2022-08-26T12:22:58.500Z,24.98
2022-08-26T12:25:26.305Z,15.00
2022-08-26T12:27:54.239Z,19.55
2022-08-26T12:30:22.789Z,13.95
2022-08-26T12:32:57.642Z,12.95
2022-08-26T12:35:25.683Z,13.70
2022-08-26T12:37:53.906Z,12.20
2022-08-26T12:40:35.194Z,20.83
2022-08-26T12:43:05.281Z,13.63
2022-08-26T12:45:34.045Z,19.52
2022-08-26T12:48:05.985Z,14.98
2022-08-26T12:50:34.664Z,18.00
2022-08-26T12:53:04.839Z,14.57
2022-08-26T12:55:40.950Z,15.18
2022-08-26T12:58:21.554Z,17.55
2022-08-26T13:00:49.287Z,20.10
2022-08-26T13:03:37.976Z,18.00
2022-08-26T13:06:15.672Z,14.60
2022-08-26T13:08:44.167Z,16.70
2022-08-26T13:11:14.142Z,18.67
2022-08-26T13:13:42.013Z,19.27
2022-08-26T13:16:08.569Z,12.48
2022-08-26T13:18:35.171Z,14.50
2022-08-26T13:21:08.636Z,17.70
2022-08-26T13:23:38.390Z,16.58
2022-08-26T13:26:07.236Z,16.83
2022-08-26T13:28:33.841Z,17.88
2022-08-26T13:31:01.964Z,17.50
2022-08-26T13:33:28.669Z,18.52
2022-08-26T13:35:55.251Z,21.92
2022-08-26T13:38:32.964Z,21.20
2022-08-26T13:41:00.324Z,16.52
2022-08-26T13:43:27.441Z,14.23
2022-08-26T13:45:54.281Z,17.75
2022-08-26T13:48:23.515Z,18.50
2022-08-26T13:50:50.485Z,21.63
2022-08-26T13:53:17.346Z,21.75
2022-08-26T13:55:43.912Z,18.63
2022-08-26T13:58:10.781Z,16.70
2022-08-26T14:00:38.135Z,17.67
2022-08-26T14:03:05.634Z,23.23
2022-08-26T14:05:36.138Z,20.67
2022-08-26T14:08:03.677Z,20.00
2022-08-26T14:10:30.266Z,17.85
2022-08-26T14:12:56.826Z,18.50
2022-08-26T14:15:23.461Z,18.45
2022-08-26T14:17:51.605Z,32.95
2022-08-26T14:20:23.569Z,22.10
2022-08-26T14:23:12.503Z,24.02
2022-08-26T14:25:38.221Z,21.67
2022-08-26T14:28:04.733Z,15.82
2022-08-26T14:30:31.673Z,16.45
2022-08-26T14:32:58.891Z,18.17
2022-08-26T14:35:27.806Z,19.85
2022-08-26T14:37:56.462Z,16.08
2022-08-26T14:40:27.168Z,17.90
2022-08-26T14:42:54.361Z,18.73
2022-08-26T14:45:23.805Z,17.75
2022-08-26T14:47:51.797Z,16.63
2022-08-26T14:50:21.382Z,23.75
2022-08-26T14:52:48.074Z,15.18
2022-08-26T14:55:15.974Z,19.05
2022-08-26T14:57:42.488Z,19.08
2022-08-26T15:00:10.373Z,19.50
2022-08-26T15:02:36.945Z,21.00
2022-08-26T15:05:03.857Z,17.77
2022-08-26T15:07:30.972Z,23.17
2022-08-26T15:09:57.918Z,20.20
2022-08-26T15:12:25.850Z,25.70
2022-08-26T15:14:52.354Z,20.02
2022-08-26T15:17:18.898Z,24.75
2022-08-26T15:19:45.413Z,21.35
2022-08-26T15:22:11.968Z,26.30
2022-08-26T15:24:38.525Z,35.03
2022-08-26T15:27:05.173Z,30.77
2022-08-26T15:29:33.219Z,34.22
2022-08-26T15:32:03.461Z,33.95
2022-08-26T15:34:30.294Z,25.88
2022-08-26T15:36:56.821Z,31.55
2022-08-26T15:39:24.028Z,29.75
2022-08-26T15:41:50.740Z,23.30
2022-08-26T15:44:17.293Z,21.13
2022-08-26T15:46:47.184Z,21.10
2022-08-26T15:49:17.542Z,21.80
2022-08-26T15:51:46.345Z,17.38
2022-08-26T15:54:13.607Z,20.08
2022-08-26T15:56:40.136Z,19.55
2022-08-26T15:59:07.367Z,13.10
2022-08-26T16:01:34.071Z,18.00
2022-08-26T16:04:02.704Z,21.92
2022-08-26T16:06:31.148Z,23.70
2022-08-26T16:08:58.357Z,23.23
2022-08-26T16:11:25.512Z,17.35
2022-08-26T16:13:52.238Z,18.63
2022-08-26T16:16:19.025Z,19.98
2022-08-26T16:18:45.679Z,21.35
2022-08-26T16:21:16.660Z,21.63
2022-08-26T16:23:45.324Z,19.83
2022-08-26T16:26:14.977Z,21.33
2022-08-26T16:28:41.535Z,19.55
2022-08-26T16:31:10.765Z,20.52
2022-08-26T16:33:37.354Z,16.17
2022-08-26T16:36:04.071Z,17.15
2022-08-26T16:38:32.289Z,23.30
2022-08-26T16:40:58.942Z,19.58
2022-08-26T16:43:25.495Z,23.52
2022-08-26T16:45:52.078Z,22.27
2022-08-26T16:48:18.620Z,21.75
2022-08-26T16:50:45.381Z,19.63
2022-08-26T16:55:46.252Z,21.60
2022-08-26T16:58:12.801Z,18.63
2022-08-26T17:00:39.353Z,22.20
2022-08-26T17:03:05.943Z,21.98
2022-08-26T17:05:32.522Z,23.23
2022-08-26T17:08:00.125Z,29.02
2022-08-26T17:10:28.560Z,19.92
2022-08-26T17:12:57.174Z,20.73
2022-08-26T17:15:24.376Z,18.58
2022-08-26T17:17:51.353Z,17.42
2022-08-26T17:20:18.581Z,18.17
2022-08-26T17:22:47.367Z,18.85
2022-08-26T17:25:16.418Z,21.85
2022-08-26T17:27:43.419Z,20.63
2022-08-26T17:30:12.614Z,19.80
2022-08-26T17:32:39.242Z,21.27
2022-08-26T17:35:06.190Z,21.55
2022-08-26T17:37:32.815Z,16.92
2022-08-26T17:39:59.386Z,21.10
2022-08-26T17:42:31.831Z,16.42
2022-08-26T17:44:58.521Z,20.45
2022-08-26T17:47:26.501Z,30.45
2022-08-26T17:49:53.032Z,23.70
2022-08-26T17:52:19.635Z,22.42
2022-08-26T17:54:46.142Z,19.73
2022-08-26T17:57:12.669Z,24.55
2022-08-26T17:59:39.174Z,25.02
2022-08-26T18:02:07.865Z,27.10
2022-08-26T18:04:35.741Z,29.33
2022-08-26T18:07:02.297Z,27.38
2022-08-26T18:09:29.354Z,21.42
2022-08-26T18:11:55.879Z,26.10
2022-08-26T18:14:22.397Z,26.23
2022-08-26T18:16:49.279Z,22.33
2022-08-26T18:19:15.818Z,22.02
2022-08-26T18:21:44.014Z,16.85
2022-08-26T18:24:14.070Z,17.20
2022-08-26T18:26:42.321Z,20.65
2022-08-26T18:29:08.853Z,21.08
2022-08-26T18:31:35.438Z,19.85
2022-08-26T18:34:02.872Z,19.00
2022-08-26T18:36:32.778Z,17.98
2022-08-26T18:39:00.910Z,18.65
2022-08-26T18:41:31.161Z,15.38
2022-08-26T18:43:58.414Z,22.88
2022-08-26T18:46:27.322Z,20.50
2022-08-26T18:48:55.152Z,20.00
2022-08-26T18:51:24.739Z,23.20
2022-08-26T18:53:51.474Z,21.98
2022-08-26T18:56:19.630Z,19.35
2022-08-26T18:58:46.633Z,19.40
2022-08-26T19:01:13.457Z,18.48
2022-08-26T19:03:40.083Z,13.95
2022-08-26T19:06:07.121Z,19.95
2022-08-26T19:08:33.654Z,17.15
2022-08-26T19:11:00.728Z,12.55
2022-08-26T19:13:28.590Z,15.90
2022-08-26T19:15:55.146Z,14.07
2022-08-26T19:18:21.659Z,13.57
2022-08-26T19:20:48.168Z,13.95
2022-08-26T19:23:31.074Z,23.60
2022-08-26T19:25:58.679Z,15.52
2022-08-26T19:28:25.225Z,18.40
2022-08-26T19:30:54.763Z,25.42
2022-08-26T19:33:21.674Z,21.67
2022-08-26T19:35:48.204Z,16.63
2022-08-26T19:38:14.751Z,16.75
2022-08-26T19:40:41.503Z,19.20
2022-08-26T19:43:08.735Z,18.70
2022-08-26T19:45:38.740Z,21.83
2022-08-26T19:48:06.740Z,14.45
2022-08-26T19:50:34.486Z,19.42
2022-08-26T19:53:01.611Z,18.33
2022-08-26T19:55:28.132Z,20.85
2022-08-26T19:57:54.765Z,15.73
2022-08-26T20:00:24.512Z,19.50
2022-08-26T20:02:51.520Z,15.70
2022-08-26T20:05:21.640Z,20.85
2022-08-26T20:07:48.896Z,15.77
2022-08-26T20:10:17.813Z,26.35
2022-08-26T20:12:44.406Z,20.95
2022-08-26T20:15:12.867Z,19.65
2022-08-26T20:17:40.230Z,16.00
2022-08-26T20:20:14.710Z,14.15
2022-08-26T20:22:57.410Z,23.75
2022-08-26T20:25:24.054Z,20.70
2022-08-26T20:27:50.649Z,17.52
2022-08-26T20:30:17.291Z,14.60
2022-08-26T20:32:43.815Z,20.98
2022-08-26T20:35:12.941Z,15.30
2022-08-26T20:37:40.020Z,20.30
2022-08-26T20:40:10.263Z,18.02
2022-08-26T20:42:36.808Z,13.35
2022-08-26T20:45:04.155Z,17.85
2022-08-26T20:47:30.732Z,14.32
2022-08-26T20:49:57.392Z,17.08
2022-08-26T20:52:23.933Z,17.98
2022-08-26T20:54:50.454Z,16.60
2022-08-26T20:57:18.301Z,19.40
2022-08-26T20:59:44.795Z,19.15
2022-08-26T21:02:11.301Z,17.58
2022-08-26T21:04:37.840Z,19.35
2022-08-26T21:07:04.464Z,13.30
2022-08-26T21:09:32.557Z,13.35
2022-08-26T21:11:59.066Z,18.02
2022-08-26T21:14:26.941Z,16.83
2022-08-26T21:16:53.672Z,23.13
2022-08-26T21:19:20.358Z,19.50
2022-08-26T21:21:48.513Z,15.15
2022-08-26T21:24:15.436Z,17.23
2022-08-26T21:26:42.472Z,18.10
2022-08-26T21:29:09.104Z,15.65
2022-08-26T21:31:40.954Z,18.48
2022-08-26T21:34:11.513Z,17.55
2022-08-26T21:36:38.108Z,15.43
2022-08-26T21:39:09.300Z,11.55
2022-08-26T21:41:38.338Z,13.52
2022-08-26T21:44:04.826Z,19.77
2022-08-26T21:46:31.691Z,14.57
2022-08-26T21:49:01.076Z,18.92
2022-08-26T21:51:29.598Z,17.45
2022-08-26T21:53:56.901Z,18.25
2022-08-26T21:56:26.189Z,19.48
2022-08-26T21:58:53.424Z,16.38
2022-08-26T22:01:22.135Z,15.93
2022-08-26T22:03:49.593Z,18.75
2022-08-26T22:06:19.779Z,14.77
2022-08-26T22:08:46.658Z,19.33
2022-08-26T22:11:13.518Z,16.63
2022-08-26T22:13:42.256Z,17.40
2022-08-26T22:16:09.488Z,14.60
2022-08-26T22:18:36.440Z,20.52
2022-08-26T22:21:06.033Z,16.35
2022-08-26T22:23:34.459Z,19.02
2022-08-26T22:26:01.236Z,13.80
2022-08-26T22:28:28.150Z,14.10
2022-08-26T22:30:54.959Z,20.63
2022-08-26T22:33:22.319Z,18.90
2022-08-26T22:35:49.924Z,19.02
2022-08-26T22:38:17.394Z,17.55
2022-08-26T22:40:46.858Z,26.45
2022-08-26T22:43:14.274Z,19.17
2022-08-26T22:45:41.454Z,24.48
2022-08-26T22:48:09.464Z,21.30
2022-08-26T22:50:36.491Z,19.15
2022-08-26T22:53:03.556Z,18.70
2022-08-26T22:55:30.256Z,21.58
2022-08-26T22:57:58.134Z,30.00
2022-08-26T23:00:32.028Z,19.95
2022-08-26T23:02:59.967Z,21.45
2022-08-26T23:05:26.512Z,20.63
2022-08-26T23:07:53.220Z,27.42
2022-08-26T23:10:19.941Z,21.02
2022-08-26T23:12:46.463Z,21.48
2022-08-26T23:15:14.477Z,24.08
2022-08-26T23:17:42.844Z,16.27
2022-08-26T23:20:11.540Z,18.70
2022-08-26T23:22:39.018Z,21.65
2022-08-26T23:25:07.997Z,22.55
2022-08-26T23:27:35.378Z,17.30
2022-08-26T23:30:01.889Z,15.95
2022-08-26T23:32:29.767Z,19.30
2022-08-26T23:34:56.269Z,18.08
2022-08-26T23:37:23.146Z,20.63
2022-08-26T23:39:51.730Z,18.08
2022-08-26T23:42:18.418Z,18.48
2022-08-26T23:44:44.966Z,13.25
2022-08-26T23:47:12.048Z,19.05
2022-08-26T23:49:40.420Z,18.08
2022-08-26T23:52:07.634Z,22.33
2022-08-26T23:54:34.220Z,16.52
2022-08-26T23:57:00.765Z,15.60
2022-08-26T23:59:27.291Z,21.33
